Danbury, CT (06810)

10:04 PM EDT on August 03, 2015 (GMT -0400)
Wooster Sq | | Change Station
CLOSE
Current Station
Personal Weather Station
Location: Danbury, CT
Elevation: 489 ft
Nearby Weather Stations

Elev 489 ft 41.38 °N, 73.46 °W | Updated 9 days ago

Partly Cloudy
Partly Cloudy
74 °F
Feels Like 74 °F
N
4
Wind Variable Wind from SSW
Gusts mph

Today
High -- | Low -- °F
--% Chance of Precip.
Yesterday
High -- | Low -- °F
Precip. -- in
5:50 AM 8:08 PM
Waning Gibbous, 82% visible
Pressure 29.82 in
Visibility 10.0 miles
Clouds Clear
Dew Point 65 °F
Humidity 73%
Rainfall in
Snow Depth Not available.
UV 0 out of 12
Pollen 7.60 out of 12
Air Quality Not available.
Flu Activity Not available.
METAR KDXR 040153Z VRB04KT 10SM CLR 24/18 A2983 RMK AO2 SLP096 T02440183

More Conditions Fewer Conditions

Pressure 29.82 in
Visibility 10.0 miles
Clouds Clear
Dew Point 65 °F
Humidity 73%
Rainfall in
Snow Depth Not available.
UV 0 out of 12
Pollen 7.60 out of 12
Air Quality Not available.
Flu Activity Not available.
METAR KDXR 040153Z VRB04KT 10SM CLR 24/18 A2983 RMK AO2 SLP096 T02440183

More Conditions Fewer Conditions

10-Day Weather Forecast

×

Almanac

Astronomy

Aug. 03, 2015 Rise Set
Actual Time
Civil Twilight
Nautical Twilight
Astronomical Twilight
Moon
Length of Visible Light
Length of Day
Tomorrow will be .
, % of the Moon is Illuminated

Today's Extremes

State Highs State Lows

Community

WunderPhotos

Upload Photos

1,843,825 photos uploaded!

WunderBlogs® & News

Nearby

Air Quality

  Air Quality AQ Index Pollutant
Not available.

Snow Depth

Station Depth Elevation

Earthquake Activity

City Distance Mag. Time & Date
Minimum magnitude displayed is 2.5.

Coastal Water Temperatures

Place Temperature

Stations

Nearby Weather Stations

Station Location Temp. Windchill Dew Point Humidity Wind Precip. Elev Updated Type